Flight Track Log - Related Links

Times and Time Zones

All times are in EDT time to prevent confusion due to time zone crossing. See the ASQ4169 flight status page for this flight to view local times or setup timezone preferences in your user account.

Time Position Orientation Groundspeed Altitude Reporting Facility
EDT Latitude Longitude Course Direction KTS MPH feet Rate Location/Type
Thu 01:05:59 PM 29.9531 -95.3422 263° West 182 209 800  Level Houston Center
Thu 01:07:19 PM 29.9203 -95.3967 235° Southwest 261 300 2,500 1,468 Climbing Houston Center
Thu 01:08:18 PM 29.9267 -95.4669 276° West 258 297 4,200 1,967 Climbing Houston Center
Thu 01:08:20 PM 29.9261 -95.4828 268° West 266 306 4,500 1,161 Climbing Houston Center
Thu 01:09:20 PM 29.9350 -95.5533 278° West 265 305 5,400 1,433 Climbing Houston Center
Thu 01:09:27 PM 29.9389 -95.5778 280° West 275 316 6,100 2,419 Climbing Houston Center
Thu 01:10:00 PM 30.2565 -95.8683 280° West  Level Estimated
Thu 01:10:22 PM 29.9606 -95.6572 287° West 280 322 7,900  Level Houston Center
Thu 01:11:00 PM 30.2444 -95.9904 263° West  Level FlightAware Approximate
Thu 01:11:23 PM 29.9853 -95.7458 288° West 292 336 9,400  Level Houston Center
Thu 01:11:25 PM 29.9844 -95.7433 111° Southeast 285 328 9,400 1,125 Level Houston Center
Thu 01:12:27 PM 30.0100 -95.8361 288° West 299 344 10,600 968 Climbing Houston Center
Thu 01:13:29 PM 30.0375 -95.9397 287° West 331 381 11,400 871 Climbing Houston Center
Thu 01:14:31 PM 30.0664 -96.0489 287° West 351 404 12,400 1,016 Climbing Houston Center
Thu 01:15:33 PM 30.0858 -96.1594 282° West 353 406 13,500 1,016 Climbing Houston Center
Thu 01:16:35 PM 30.1061 -96.2942 280° West 356 410 14,500 919 Climbing Houston Center
Thu 01:17:37 PM 30.1233 -96.4067 280° West 357 411 15,400 816 Climbing Houston Center
Thu 01:18:40 PM 30.1408 -96.5150 281° West 359 413 16,200 720 Climbing Houston Center
Thu 01:19:42 PM 30.1581 -96.6325 280° West 366 421 16,900 774 Climbing Houston Center
Thu 01:20:44 PM 30.1792 -96.7722 280° West 372 428 17,800 823 Climbing Houston Center
Thu 01:21:46 PM 30.1969 -96.8908 280° West 372 428 18,600 871 Climbing Houston Center
Thu 01:22:48 PM 30.2147 -97.0108 280° West 373 429 19,600 1,210 Climbing Houston Center
Thu 01:23:50 PM 30.2319 -97.1269 280° West 368 423 21,100 1,403 Climbing Houston Center
Thu 01:24:52 PM 30.2575 -97.2356 285° West 353 406 22,500 1,306 Climbing Houston Center
Thu 01:25:54 PM 30.2856 -97.3403 287° West 342 394 23,800 1,056 Climbing Houston Center
Thu 01:26:57 PM 30.3139 -97.4442 288° West 337 388 24,700 960 Climbing Houston Center
Thu 01:27:59 PM 30.3458 -97.5675 287° West 339 390 25,800 919 Climbing Houston Center
Thu 01:29:01 PM 30.3750 -97.6744 288° West 344 396 26,600 677 Climbing Houston Center
Thu 01:30:03 PM 30.4028 -97.7853 286° West 352 405 27,200 629 Climbing Houston Center
Thu 01:31:05 PM 30.4336 -97.8975 288° West 358 412 27,900 677 Climbing Houston Center
Thu 01:32:07 PM 30.4625 -98.0136 286° West 367 422 28,600 629 Climbing Houston Center
Thu 01:33:09 PM 30.4925 -98.1294 287° West 369 425 29,200 774 Climbing Houston Center
Thu 01:34:11 PM 30.5236 -98.2469 287° West 375 432 30,200 960 Climbing Houston Center
Thu 01:35:14 PM 30.5539 -98.3633 287° West 373 429 31,200 1,008 Climbing Houston Center
Thu 01:36:16 PM 30.5883 -98.4953 287° West 366 421 32,300 968 Climbing Houston Center
Thu 01:37:18 PM 30.6133 -98.6069 285° West 358 412 33,200 919 Climbing Houston Center
Thu 01:38:20 PM 30.6422 -98.7203 287° West 363 418 34,200 871 Climbing Houston Center
Thu 01:40:24 PM 30.6972 -98.9414 286° West 351 404 35,900 581 Climbing Houston Center
Thu 01:41:26 PM 30.7267 -99.0536 287° West 358 412 36,000 48 Climbing Houston Center
Thu 01:42:29 PM 30.7656 -99.1722 291° West 378 435 36,000  Level Houston Center
Thu 01:43:31 PM 30.8361 -99.2769 308° West 412 474 36,000  Level Houston Center
Thu 01:44:33 PM 30.9178 -99.4022 307° West 408 470 36,000  Level Houston Center
Thu 01:45:35 PM 30.9894 -99.5117 307° West 423 487 36,000  Level Houston Center
Thu 01:46:37 PM 31.0606 -99.6192 308° West 423 487 36,000  Level Houston Center
Thu 01:47:39 PM 31.1336 -99.7317 307° West 430 495 36,000  Level Houston Center
Thu 01:48:41 PM 31.2053 -99.8389 308° West 423 487 36,000  Level Houston Center
Thu 01:49:43 PM 31.2775 -99.9519 307° West 432 497 36,000  Level Houston Center
Thu 01:50:45 PM 31.3633 -100.0833 307° West 426 490 36,000  Level Houston Center
Thu 01:51:18 PM 31.3967 -100.1342 308° West 430 495 36,000  Level Fort Worth Center
Thu 01:52:18 PM 31.4653 -100.2458 306° West 424 488 36,000  Level Fort Worth Center
Thu 01:53:18 PM 31.5358 -100.3578 307° West 424 488 36,000  Level Fort Worth Center
Thu 01:53:52 PM 31.5747 -100.4128 310° West 427 491 36,000  Level Houston Center
Thu 01:54:54 PM 31.6458 -100.5228 307° West 423 487 36,000  Level Houston Center
Thu 01:55:56 PM 31.7325 -100.6597 307° West 432 497 36,000  Level Houston Center
Thu 01:56:58 PM 31.8014 -100.7667 307° West 433 498 36,000  Level Houston Center
Thu 01:58:00 PM 31.8708 -100.8767 307° West 424 488 36,000  Level Houston Center
Thu 01:59:18 PM 31.9711 -101.0353 307° West 424 488 36,000  Level Fort Worth Center
Thu 02:00:17 PM 32.0408 -101.1458 307° West 424 488 36,000  Level Fort Worth Center
Thu 02:01:18 PM 32.1106 -101.2567 307° West 419 482 36,000  Level Fort Worth Center
Thu 02:02:18 PM 32.1761 -101.3697 304° West 419 482 36,000  Level Fort Worth Center
Thu 02:03:18 PM 32.2433 -101.4808 306° West 419 482 36,000  Level Fort Worth Center
Thu 02:04:18 PM 32.3131 -101.5872 308° West 419 482 36,000  Level Fort Worth Center
Thu 02:05:18 PM 32.3803 -101.6983 306° West 419 482 36,000  Level Fort Worth Center
Thu 02:06:18 PM 32.4494 -101.8075 307° West 419 482 36,000  Level Fort Worth Center
Thu 02:07:18 PM 32.5164 -101.9192 305° West 419 482 36,000  Level Fort Worth Center
Thu 02:08:18 PM 32.5836 -102.0261 307° West 419 482 36,000  Level Fort Worth Center
Thu 02:09:18 PM 32.6525 -102.1358 307° West 414 476 36,000  Level Fort Worth Center
Thu 02:10:18 PM 32.7214 -102.2456 307° West 414 476 36,000  Level Fort Worth Center
Thu 02:11:18 PM 32.7881 -102.3578 305° West 414 476 36,000  Level Fort Worth Center
Thu 02:12:18 PM 32.8486 -102.4575 306° West 419 482 36,000  Level Fort Worth Center
Thu 02:13:18 PM 32.9153 -102.5678 306° West 414 476 36,000  Level Fort Worth Center
Thu 02:14:18 PM 32.9836 -102.6806 306° West 414 476 36,000  Level Fort Worth Center
Thu 02:15:18 PM 33.0475 -102.7958 303° West 414 476 36,000  Level Fort Worth Center
Thu 02:16:18 PM 33.1139 -102.9017 307° West 414 476 36,000  Level Fort Worth Center
Thu 02:17:13 PM 33.1786 -103.0111 305° West 410 472 36,000  Level Albuquerque Center
Thu 02:18:15 PM 33.2447 -103.1233 305° West 412 474 36,000  Level Albuquerque Center
Thu 02:19:17 PM 33.3131 -103.2356 306° West 418 481 36,000  Level Albuquerque Center
Thu 02:20:19 PM 33.3786 -103.3497 305° West 417 480 36,000  Level Albuquerque Center
Thu 02:21:21 PM 33.4464 -103.4622 306° West 418 481 36,000  Level Albuquerque Center
Thu 02:22:23 PM 33.5253 -103.6008 304° West 420 483 36,000  Level Albuquerque Center
Thu 02:23:25 PM 33.5969 -103.7158 307° West 420 483 36,000  Level Albuquerque Center
Thu 02:24:27 PM 33.6692 -103.8386 305° West 420 483 36,000  Level Albuquerque Center
Thu 02:25:30 PM 33.7350 -103.9531 305° West 418 481 36,000  Level Albuquerque Center
Thu 02:26:32 PM 33.8014 -104.0672 305° West 418 481 36,000  Level Albuquerque Center
Thu 02:27:34 PM 33.8717 -104.1892 305° West 416 479 36,000  Level Albuquerque Center
Thu 02:28:36 PM 33.9367 -104.3019 305° West 412 474 36,000  Level Albuquerque Center
Thu 02:29:38 PM 34.0061 -104.4231 305° West 411 473 36,000  Level Albuquerque Center
Thu 02:30:40 PM 34.0736 -104.5403 305° West 413 475 36,000  Level Albuquerque Center
Thu 02:31:42 PM 34.1392 -104.6564 304° West 413 475 36,000  Level Albuquerque Center
Thu 02:32:44 PM 34.2050 -104.7706 305° West 411 473 36,000  Level Albuquerque Center
Thu 02:33:46 PM 34.2694 -104.8842 304° West 408 470 36,000  Level Albuquerque Center
Thu 02:34:48 PM 34.3353 -104.9969 307° West 405 466 36,000  Level Albuquerque Center
Thu 02:35:00 PM 34.3472 -105.0087 307° West  Level FlightAware Approximate
Thu 02:35:50 PM 34.3997 -105.1108 304° West 406 467 36,000  Level Albuquerque Center
Thu 02:36:52 PM 34.4650 -105.2275 304° West 410 472 36,000 -97 Level Albuquerque Center
Thu 02:37:54 PM 34.5419 -105.3631 305° West 413 475 35,800 -1,403 Descending Albuquerque Center
Thu 02:38:56 PM 34.6033 -105.4747 304° West 399 459 33,100 -2,952 Descending Albuquerque Center
Thu 02:39:58 PM 34.6653 -105.5872 304° West 395 455 29,700 -3,145 Descending Albuquerque Center
Thu 02:41:00 PM 34.7294 -105.7064 303° West 409 471 26,600 -2,806 Descending Albuquerque Center
Thu 02:42:02 PM 34.7717 -105.8369 292° West 411 473 23,900 -2,642 Descending Albuquerque Center
Thu 02:42:49 PM 34.8019 -105.9533 288° West 408 470 21,800 -2,476 Descending Albuquerque Center
Thu 02:43:05 PM 34.8089 -105.9742 292° West 414 476 21,300 -2,262 Descending Albuquerque Center
Thu 02:43:50 PM 34.8378 -106.0808 288° West 401 461 19,500 -2,226 Descending Albuquerque Center
Thu 02:44:07 PM 34.8447 -106.1000 294° West 401 461 19,000 -2,700 Descending Albuquerque Center
Thu 02:44:50 PM 34.8656 -106.2006 284° West 369 425 16,800 -2,903 Descending Albuquerque Center
Thu 02:45:09 PM 34.8725 -106.2294 286° West 378 435 16,000 -2,754 Descending Albuquerque Center
Thu 02:45:51 PM 34.8908 -106.3183 284° West 350 403 14,000 -2,613 Descending Albuquerque Center
Thu 02:46:11 PM 34.8969 -106.3444 286° West 354 407 13,300 -1,869 Descending Albuquerque Center
Thu 02:46:52 PM 34.9175 -106.4203 288° West 308 354 12,100 -1,548 Descending Albuquerque Center
Thu 02:47:13 PM 34.9303 -106.4364 314° West 304 350 11,700 -2,300 Descending Albuquerque Center
Thu 02:47:52 PM 34.9706 -106.4789 319° Northwest 241 277 9,800 -2,710 Descending Albuquerque Center
Thu 02:48:15 PM 34.9844 -106.4869 335° Northwest 254 292 8,900 -2,361 Descending Albuquerque Center
Thu 02:48:53 PM 35.0297 -106.5128 335° Northwest 201 231 7,400 -1,839 Descending Albuquerque Center
Thu 02:49:17 PM 35.0428 -106.5244 324° Northwest 192 221 7,000 -1,475 Descending Albuquerque Center
Thu 02:49:54 PM 35.0436 -106.5558 272° West 133 153 5,900 -1,452 Descending Albuquerque Center
Thu 02:50:19 PM 35.0439 -106.5731 271° West 144 166 5,500 -960 Descending Albuquerque Center

Login

Don't have an account? Register now (free) for customized features, flight alerts, and more!